createdAt,value
2023-04-24T00:00:17.312Z,98.8
2023-04-24T00:01:16.840Z,98.8
2023-04-24T00:02:17.074Z,98.9
2023-04-24T00:03:16.984Z,98.9
2023-04-24T00:04:16.912Z,98.9
2023-04-24T00:05:17.524Z,99.0
2023-04-24T00:06:17.071Z,99.0
2023-04-24T00:07:16.613Z,99.0
2023-04-24T00:08:17.184Z,99.0
2023-04-24T00:09:16.772Z,99.0
2023-04-24T00:10:17.318Z,99.0
2023-04-24T00:11:16.884Z,98.9
2023-04-24T00:12:16.629Z,98.9
2023-04-24T00:13:17.196Z,98.9
2023-04-24T00:14:16.733Z,98.9
2023-04-24T00:15:17.271Z,98.9
2023-04-24T00:16:16.871Z,99.0
2023-04-24T00:17:17.468Z,99.1
2023-04-24T00:18:17.025Z,99.2
2023-04-24T00:19:16.592Z,99.2
2023-04-24T00:20:17.198Z,99.3
2023-04-24T00:21:16.765Z,99.3
2023-04-24T00:22:17.124Z,99.3
2023-04-24T00:23:16.698Z,99.3
2023-04-24T00:24:17.249Z,99.3
2023-04-24T00:25:16.808Z,99.3
2023-04-24T00:26:17.353Z,99.3
2023-04-24T00:27:16.930Z,99.2
2023-04-24T00:28:17.460Z,99.2
2023-04-24T00:29:17.003Z,99.3
2023-04-24T00:30:16.561Z,99.3
2023-04-24T00:31:17.115Z,99.3
2023-04-24T00:32:17.152Z,99.4
2023-04-24T00:33:16.818Z,99.4
2023-04-24T00:34:17.371Z,99.5
2023-04-24T00:35:16.906Z,99.4
2023-04-24T00:36:17.494Z,99.4
2023-04-24T00:37:17.052Z,99.3
2023-04-24T00:38:16.585Z,99.3
2023-04-24T00:39:17.136Z,99.2
2023-04-24T00:40:16.665Z,99.2
2023-04-24T00:41:17.218Z,99.2
2023-04-24T00:42:17.250Z,99.2
2023-04-24T00:43:16.788Z,99.2
2023-04-24T00:44:17.312Z,99.1
2023-04-24T00:45:16.886Z,99.1
2023-04-24T00:46:17.494Z,99.1
2023-04-24T00:47:17.070Z,99.1
2023-04-24T00:48:16.753Z,99.0
2023-04-24T00:49:17.372Z,99.1
2023-04-24T00:50:16.941Z,99.1
2023-04-24T00:51:17.488Z,99.1
2023-04-24T00:52:16.702Z,99.1
2023-04-24T00:53:17.236Z,99.0
2023-04-24T00:54:16.782Z,99.0
2023-04-24T00:55:17.333Z,99.0
2023-04-24T00:56:16.880Z,99.0
2023-04-24T00:57:17.447Z,99.0
2023-04-24T00:58:17.011Z,99.1
2023-04-24T00:59:16.550Z,99.1
2023-04-24T01:00:17.076Z,99.1
2023-04-24T01:01:16.713Z,99.1
2023-04-24T01:02:17.324Z,99.0
2023-04-24T01:03:17.177Z,99.0
2023-04-24T01:04:17.221Z,99.0
2023-04-24T01:05:16.818Z,99.0
2023-04-24T01:06:17.408Z,99.0
2023-04-24T01:07:16.970Z,99.0
2023-04-24T01:08:16.474Z,99.0
2023-04-24T01:09:17.010Z,99.1
2023-04-24T01:10:16.577Z,99.2
2023-04-24T01:11:17.138Z,99.2
2023-04-24T01:12:16.777Z,99.3
2023-04-24T01:13:17.414Z,99.3
2023-04-24T01:14:16.975Z,99.3
2023-04-24T01:15:16.560Z,99.3
2023-04-24T01:16:17.224Z,99.3
2023-04-24T01:17:17.017Z,99.3
2023-04-24T01:18:16.620Z,99.4
2023-04-24T01:19:17.213Z,99.4
2023-04-24T01:20:16.848Z,99.3
2023-04-24T01:21:17.526Z,99.3
2023-04-24T01:22:17.423Z,99.4
2023-04-24T01:23:16.975Z,99.4
2023-04-24T01:24:16.529Z,99.3
2023-04-24T01:25:17.114Z,99.3
2023-04-24T01:26:16.644Z,99.4
2023-04-24T01:27:17.199Z,99.4
2023-04-24T01:28:16.724Z,99.4
2023-04-24T01:29:17.345Z,99.4
2023-04-24T01:30:16.913Z,99.4
2023-04-24T01:31:17.582Z,99.4
2023-04-24T01:32:16.615Z,99.4
2023-04-24T01:33:17.162Z,99.4
2023-04-24T01:34:16.731Z,99.4
2023-04-24T01:35:17.331Z,99.4
2023-04-24T01:36:16.882Z,99.4
2023-04-24T01:37:17.463Z,99.3
2023-04-24T01:38:17.034Z,99.3
2023-04-24T01:39:16.604Z,99.3
2023-04-24T01:40:17.203Z,99.3
2023-04-24T01:41:16.748Z,99.1
2023-04-24T01:42:16.606Z,99.1
2023-04-24T01:43:17.158Z,99.1
2023-04-24T01:44:16.741Z,99.0
2023-04-24T01:45:17.327Z,99.0
2023-04-24T01:46:17.041Z,98.9
2023-04-24T01:47:16.614Z,98.9
2023-04-24T01:48:17.196Z,98.9
2023-04-24T01:49:16.748Z,98.7
2023-04-24T01:50:17.361Z,98.7
2023-04-24T01:51:16.888Z,98.6
2023-04-24T01:52:16.579Z,98.6
2023-04-24T01:53:17.117Z,98.5
2023-04-24T01:54:16.696Z,98.4
2023-04-24T01:55:17.267Z,98.5
2023-04-24T01:56:16.833Z,98.4
2023-04-24T01:57:17.420Z,98.3
2023-04-24T01:58:17.002Z,98.2
2023-04-24T01:59:16.576Z,98.1
2023-04-24T02:00:17.140Z,98.1
2023-04-24T02:01:16.844Z,98.1
2023-04-24T02:02:17.200Z,98.0
2023-04-24T02:03:17.100Z,98.0
2023-04-24T02:04:17.070Z,98.0
2023-04-24T02:05:16.798Z,98.0
2023-04-24T02:06:17.334Z,98.0
2023-04-24T02:07:16.915Z,97.9
2023-04-24T02:08:17.448Z,98.0
2023-04-24T02:09:16.983Z,98.0
2023-04-24T02:10:16.548Z,97.9
2023-04-24T02:11:17.096Z,97.9
2023-04-24T02:12:17.458Z,97.8
2023-04-24T02:13:17.044Z,97.8
2023-04-24T02:14:16.605Z,97.9
2023-04-24T02:15:17.187Z,97.9
2023-04-24T02:16:16.811Z,97.9
2023-04-24T02:17:17.412Z,97.9
2023-04-24T02:18:16.976Z,98.0
2023-04-24T02:19:16.522Z,98.0
2023-04-24T02:20:17.066Z,98.0
2023-04-24T02:21:16.595Z,98.0
2023-04-24T02:22:17.292Z,98.1
2023-04-24T02:23:16.888Z,98.1
2023-04-24T02:24:17.433Z,97.9
2023-04-24T02:25:16.989Z,97.9
2023-04-24T02:26:16.561Z,97.9
2023-04-24T02:27:17.111Z,97.9
2023-04-24T02:28:16.656Z,97.8
2023-04-24T02:29:17.239Z,97.8
2023-04-24T02:30:16.859Z,97.6
2023-04-24T02:31:17.446Z,97.6
2023-04-24T02:32:17.369Z,97.7
2023-04-24T02:33:17.013Z,97.7
2023-04-24T02:34:16.538Z,97.7
2023-04-24T02:35:17.210Z,97.7
2023-04-24T02:36:16.824Z,97.7
2023-04-24T02:37:17.461Z,97.7
2023-04-24T02:38:16.998Z,97.7
2023-04-24T02:39:16.549Z,97.7
2023-04-24T02:40:17.144Z,97.7
2023-04-24T02:41:16.707Z,97.6
2023-04-24T02:42:17.061Z,97.6
2023-04-24T02:43:16.622Z,97.7
2023-04-24T02:44:17.193Z,97.7
2023-04-24T02:45:16.730Z,97.7
2023-04-24T02:46:17.509Z,97.7
2023-04-24T02:47:17.089Z,97.5
2023-04-24T02:48:16.620Z,97.6
2023-04-24T02:49:17.171Z,97.6
2023-04-24T02:50:16.777Z,97.5
2023-04-24T02:51:17.308Z,97.4
2023-04-24T02:52:17.460Z,97.5
2023-04-24T02:53:17.007Z,97.5
2023-04-24T02:54:16.557Z,97.5
2023-04-24T02:55:17.111Z,97.4
2023-04-24T02:56:16.654Z,97.2
2023-04-24T02:57:16.552Z,97.3
2023-04-24T02:58:17.120Z,97.2
2023-04-24T02:59:16.698Z,97.3
2023-04-24T03:00:17.282Z,97.1
2023-04-24T03:01:16.911Z,97.1
2023-04-24T03:02:16.856Z,97.0
2023-04-24T03:03:17.764Z,97.1
2023-04-24T03:04:17.663Z,97.1
2023-04-24T03:05:17.289Z,97.1
2023-04-24T03:06:16.847Z,97.1
2023-04-24T03:07:17.406Z,97.0
2023-04-24T03:08:16.954Z,97.0
2023-04-24T03:09:17.532Z,97.0
2023-04-24T03:10:17.088Z,97.1
2023-04-24T03:11:16.676Z,97.2
2023-04-24T03:12:17.408Z,97.1
2023-04-24T03:13:16.982Z,97.2
2023-04-24T03:14:16.517Z,97.1
2023-04-24T03:15:17.095Z,97.1
2023-04-24T03:16:16.689Z,97.2
2023-04-24T03:17:17.279Z,97.0
2023-04-24T03:18:16.995Z,97.0
2023-04-24T03:19:16.595Z,97.0
2023-04-24T03:20:17.266Z,97.0
2023-04-24T03:21:16.891Z,97.0
2023-04-24T03:22:16.668Z,97.1
2023-04-24T03:23:17.307Z,97.0
2023-04-24T03:24:16.875Z,97.0
2023-04-24T03:25:17.441Z,96.8
2023-04-24T03:26:16.986Z,96.8
2023-04-24T03:27:16.551Z,96.8
2023-04-24T03:28:17.122Z,96.8
2023-04-24T03:29:16.664Z,96.7
2023-04-24T03:30:17.261Z,96.7
2023-04-24T03:31:16.839Z,96.6
2023-04-24T03:32:16.815Z,96.5
2023-04-24T03:33:17.404Z,96.6
2023-04-24T03:34:16.957Z,96.6
2023-04-24T03:35:17.512Z,96.6
2023-04-24T03:36:17.040Z,96.7
2023-04-24T03:37:16.617Z,96.6
2023-04-24T03:38:17.192Z,96.5
2023-04-24T03:39:16.733Z,96.6
2023-04-24T03:40:17.342Z,96.5
2023-04-24T03:41:16.906Z,96.6
2023-04-24T03:42:16.582Z,96.5
2023-04-24T03:43:17.128Z,96.5
2023-04-24T03:44:16.721Z,96.4
2023-04-24T03:45:17.292Z,96.4
2023-04-24T03:46:16.881Z,96.5
2023-04-24T03:47:17.458Z,96.2
2023-04-24T03:48:17.013Z,96.3
2023-04-24T03:49:16.591Z,96.3
2023-04-24T03:50:17.162Z,96.3
2023-04-24T03:51:16.715Z,96.3
2023-04-24T03:52:16.646Z,96.3
2023-04-24T03:53:17.217Z,96.3
2023-04-24T03:54:16.809Z,96.4
2023-04-24T03:55:17.398Z,96.4
2023-04-24T03:56:16.932Z,96.4
2023-04-24T03:57:17.509Z,96.4
2023-04-24T03:58:17.067Z,96.3
2023-04-24T03:59:16.616Z,96.5
2023-04-24T04:00:17.137Z,96.5
2023-04-24T04:01:16.711Z,96.5
2023-04-24T04:02:17.231Z,96.6
2023-04-24T04:03:17.261Z,96.7
2023-04-24T04:04:17.337Z,96.6
2023-04-24T04:05:17.163Z,96.7
2023-04-24T04:06:16.708Z,96.7
2023-04-24T04:07:17.266Z,96.8
2023-04-24T04:08:16.831Z,96.8
2023-04-24T04:09:17.426Z,96.9
2023-04-24T04:10:16.981Z,97.0
2023-04-24T04:11:16.506Z,97.0
2023-04-24T04:12:17.012Z,97.0
2023-04-24T04:13:16.582Z,97.0
2023-04-24T04:14:17.132Z,97.1
2023-04-24T04:15:16.673Z,97.1
2023-04-24T04:16:17.319Z,97.2
2023-04-24T04:17:16.906Z,97.2
2023-04-24T04:18:17.530Z,97.2
2023-04-24T04:19:17.134Z,97.3
2023-04-24T04:20:16.711Z,97.3
2023-04-24T04:21:17.279Z,97.3
2023-04-24T04:22:16.923Z,97.3
2023-04-24T04:23:17.475Z,97.3
2023-04-24T04:24:17.056Z,97.3
2023-04-24T04:25:16.638Z,97.2
2023-04-24T04:26:17.188Z,97.3
2023-04-24T04:27:16.732Z,97.3
2023-04-24T04:28:17.291Z,97.3
2023-04-24T04:29:18.897Z,97.3
2023-04-24T04:30:17.440Z,97.2
2023-04-24T04:31:17.134Z,97.2
2023-04-24T04:32:16.834Z,97.3
2023-04-24T04:33:17.425Z,97.3
2023-04-24T04:34:16.993Z,97.3
2023-04-24T04:35:16.553Z,97.3
2023-04-24T04:36:17.146Z,97.3
2023-04-24T04:37:16.744Z,97.4
2023-04-24T04:38:17.306Z,97.3
2023-04-24T04:39:16.888Z,97.3
2023-04-24T04:40:17.421Z,97.2
2023-04-24T04:41:17.004Z,97.1
2023-04-24T04:42:16.772Z,97.3
2023-04-24T04:43:17.296Z,97.2
2023-04-24T04:44:16.870Z,97.1
2023-04-24T04:45:17.440Z,97.1
2023-04-24T04:46:17.118Z,97.0
2023-04-24T04:47:16.702Z,97.0
2023-04-24T04:48:17.270Z,97.0
2023-04-24T04:49:16.860Z,97.0
2023-04-24T04:50:17.418Z,97.0
2023-04-24T04:51:17.037Z,96.9
2023-04-24T04:52:17.221Z,96.8
2023-04-24T04:53:16.772Z,96.8
2023-04-24T04:54:17.303Z,96.8
2023-04-24T04:55:16.871Z,96.8
2023-04-24T04:56:17.408Z,96.8
2023-04-24T04:57:16.937Z,96.8
2023-04-24T04:58:17.493Z,96.8
2023-04-24T04:59:17.045Z,96.7
2023-04-24T05:00:16.602Z,96.6
2023-04-24T05:01:17.266Z,96.6
2023-04-24T05:02:17.186Z,96.7
2023-04-24T05:03:22.013Z,96.5
2023-04-24T05:04:17.021Z,96.5
2023-04-24T05:05:16.979Z,96.4
2023-04-24T05:06:16.581Z,96.5
2023-04-24T05:07:17.172Z,96.4
2023-04-24T05:08:27.954Z,96.4
2023-04-24T05:09:16.588Z,96.4
2023-04-24T05:10:17.145Z,96.4
2023-04-24T05:11:16.712Z,96.4
2023-04-24T05:12:16.718Z,96.2
2023-04-24T05:13:28.687Z,96.1
2023-04-24T05:14:17.458Z,96.1
2023-04-24T05:15:17.021Z,96.2
2023-04-24T05:16:16.800Z,96.1
2023-04-24T05:17:17.537Z,96.2
2023-04-24T05:18:17.217Z,96.3
2023-04-24T05:19:16.792Z,96.2
2023-04-24T05:20:17.377Z,96.2
2023-04-24T05:21:16.914Z,96.0
2023-04-24T05:22:17.032Z,96.0
2023-04-24T05:23:16.597Z,96.2
2023-04-24T05:24:17.151Z,96.1
2023-04-24T05:25:16.681Z,96.1
2023-04-24T05:26:17.230Z,96.0
2023-04-24T05:27:16.806Z,96.1
2023-04-24T05:28:17.395Z,96.1
2023-04-24T05:29:16.984Z,96.1
2023-04-24T05:30:16.568Z,96.0
2023-04-24T05:31:17.175Z,96.1
2023-04-24T05:32:17.279Z,95.9
2023-04-24T05:33:16.864Z,95.9
2023-04-24T05:34:17.455Z,95.8
2023-04-24T05:35:16.985Z,95.7
2023-04-24T05:36:16.528Z,95.8
2023-04-24T05:37:17.079Z,95.8
2023-04-24T05:38:16.658Z,95.7
2023-04-24T05:39:17.194Z,95.5
2023-04-24T05:40:16.740Z,95.5
2023-04-24T05:41:17.347Z,95.4
2023-04-24T05:42:17.341Z,95.1
2023-04-24T05:43:16.903Z,95.2
2023-04-24T05:44:17.475Z,95.4
2023-04-24T05:45:17.041Z,95.5
2023-04-24T05:46:16.640Z,95.3
2023-04-24T05:47:17.192Z,95.3
2023-04-24T05:48:16.762Z,95.2
2023-04-24T05:49:17.338Z,95.2
2023-04-24T05:50:16.885Z,95.2
2023-04-24T05:51:17.436Z,95.3
2023-04-24T05:52:17.426Z,95.2
2023-04-24T05:53:16.952Z,95.2
2023-04-24T05:54:17.483Z,95.1
2023-04-24T05:55:17.051Z,95.0
2023-04-24T05:56:16.583Z,95.1
2023-04-24T05:57:17.217Z,94.7
2023-04-24T05:58:16.854Z,94.6
2023-04-24T05:59:17.388Z,94.7
2023-04-24T06:00:16.988Z,94.7
2023-04-24T06:01:16.551Z,94.4
2023-04-24T06:02:17.698Z,94.5
2023-04-24T06:03:17.666Z,94.3
2023-04-24T06:04:17.830Z,93.9
2023-04-24T06:05:17.711Z,93.9
2023-04-24T06:06:17.370Z,93.9
2023-04-24T06:07:16.914Z,93.6
2023-04-24T06:08:17.514Z,93.5
2023-04-24T06:09:17.088Z,93.3
2023-04-24T06:10:16.674Z,93.5
2023-04-24T06:11:17.224Z,93.3
2023-04-24T06:12:16.580Z,93.0
2023-04-24T06:13:17.130Z,92.9
2023-04-24T06:14:16.665Z,92.5
2023-04-24T06:15:17.218Z,92.5
2023-04-24T06:16:16.831Z,92.9
2023-04-24T06:17:17.410Z,92.9
2023-04-24T06:18:16.975Z,92.4
2023-04-24T06:19:16.550Z,92.3
2023-04-24T06:20:17.137Z,92.4
2023-04-24T06:21:16.657Z,92.2
2023-04-24T06:22:17.123Z,92.2
2023-04-24T06:23:16.681Z,91.9
2023-04-24T06:24:17.474Z,91.6
2023-04-24T06:25:17.078Z,91.5
2023-04-24T06:26:16.614Z,91.6
2023-04-24T06:27:17.166Z,91.5
2023-04-24T06:28:16.751Z,91.7
2023-04-24T06:29:17.311Z,91.5
2023-04-24T06:30:16.918Z,91.6
2023-04-24T06:31:17.451Z,91.6
2023-04-24T06:32:17.531Z,91.8
2023-04-24T06:33:23.756Z,91.8
2023-04-24T06:34:17.449Z,91.6
2023-04-24T06:35:17.002Z,91.6
2023-04-24T06:36:16.568Z,91.8
2023-04-24T06:37:17.157Z,90.7
2023-04-24T06:38:16.720Z,90.9
2023-04-24T06:39:17.290Z,91.1
2023-04-24T06:40:16.876Z,90.9
2023-04-24T06:41:17.495Z,90.8
2023-04-24T06:42:17.054Z,91.0
2023-04-24T06:43:16.595Z,91.3
2023-04-24T06:44:17.153Z,91.3
2023-04-24T06:45:16.730Z,91.4
2023-04-24T06:46:17.373Z,91.1
2023-04-24T06:47:16.965Z,91.1
2023-04-24T06:48:16.525Z,90.7
2023-04-24T06:49:17.268Z,90.7
2023-04-24T06:50:16.937Z,90.5
2023-04-24T06:51:17.494Z,90.4
2023-04-24T06:52:16.641Z,90.3
2023-04-24T06:53:17.218Z,89.6
2023-04-24T06:54:16.817Z,89.7
2023-04-24T06:55:17.386Z,89.5
2023-04-24T06:56:16.936Z,89.5
2023-04-24T06:57:17.496Z,89.4
2023-04-24T06:58:17.046Z,88.9
2023-04-24T06:59:16.596Z,88.5
2023-04-24T07:00:17.165Z,88.8
2023-04-24T07:01:16.843Z,89.1
2023-04-24T07:02:17.432Z,88.9
2023-04-24T07:03:17.335Z,88.9
2023-04-24T07:04:17.363Z,88.4
2023-04-24T07:05:17.054Z,88.3
2023-04-24T07:06:16.645Z,87.2
2023-04-24T07:07:17.198Z,87.4
2023-04-24T07:08:16.776Z,87.6
2023-04-24T07:09:17.472Z,87.7
2023-04-24T07:10:17.067Z,88.1
2023-04-24T07:11:16.601Z,87.9
2023-04-24T07:12:17.472Z,86.1
2023-04-24T07:13:17.015Z,86.0
2023-04-24T07:14:16.557Z,85.5
2023-04-24T07:15:17.140Z,85.3
2023-04-24T07:16:16.794Z,85.4
2023-04-24T07:17:17.408Z,84.1
2023-04-24T07:18:16.978Z,84.4
2023-04-24T07:19:16.533Z,83.6
2023-04-24T07:20:17.159Z,82.0
2023-04-24T07:21:16.710Z,82.1
2023-04-24T07:22:16.496Z,82.9
2023-04-24T07:23:17.055Z,82.3
2023-04-24T07:24:16.620Z,81.7
2023-04-24T07:25:17.216Z,80.9
2023-04-24T07:26:16.765Z,80.5
2023-04-24T07:27:17.328Z,80.1
2023-04-24T07:28:16.870Z,81.0
2023-04-24T07:29:17.442Z,79.0
2023-04-24T07:30:17.114Z,79.4
2023-04-24T07:31:16.734Z,79.8
2023-04-24T07:32:16.749Z,80.5
2023-04-24T07:33:17.653Z,78.9
2023-04-24T07:34:17.250Z,79.1
2023-04-24T07:35:16.815Z,78.0
2023-04-24T07:36:17.374Z,78.1
2023-04-24T07:37:16.932Z,78.1
2023-04-24T07:38:17.494Z,78.1
2023-04-24T07:39:17.047Z,78.4
2023-04-24T07:40:16.587Z,78.5
2023-04-24T07:41:17.155Z,78.2
2023-04-24T07:42:17.104Z,78.5
2023-04-24T07:43:16.648Z,77.9
2023-04-24T07:44:17.252Z,78.2
2023-04-24T07:45:16.809Z,78.3
2023-04-24T07:46:17.417Z,77.1
2023-04-24T07:47:17.134Z,76.7
2023-04-24T07:48:16.703Z,76.7
2023-04-24T07:49:20.134Z,76.7
2023-04-24T07:50:16.744Z,76.3
2023-04-24T07:51:17.281Z,76.7
2023-04-24T07:52:17.097Z,76.2
2023-04-24T07:53:16.657Z,76.8
2023-04-24T07:54:17.239Z,76.4
2023-04-24T07:55:16.785Z,75.2
2023-04-24T07:56:17.360Z,75.1
2023-04-24T07:57:16.913Z,74.4
2023-04-24T07:58:17.474Z,72.6
2023-04-24T07:59:17.073Z,72.8
2023-04-24T08:00:16.682Z,72.1
2023-04-24T08:01:17.239Z,71.8
2023-04-24T08:02:16.920Z,72.0
2023-04-24T08:03:17.821Z,68.6
2023-04-24T08:04:17.737Z,69.2
2023-04-24T08:05:17.712Z,68.2
2023-04-24T08:06:17.359Z,68.1
2023-04-24T08:07:16.927Z,68.7
2023-04-24T08:08:17.495Z,69.4
2023-04-24T08:09:17.050Z,68.9
2023-04-24T08:10:16.615Z,69.8
2023-04-24T08:11:17.189Z,69.7
2023-04-24T08:12:17.021Z,68.2
2023-04-24T08:13:16.590Z,68.7
2023-04-24T08:14:17.177Z,69.8
2023-04-24T08:15:16.788Z,68.3
2023-04-24T08:16:17.444Z,68.4
2023-04-24T08:17:16.981Z,67.4
2023-04-24T08:18:16.596Z,68.9
2023-04-24T08:19:17.240Z,69.5
2023-04-24T08:20:16.850Z,69.6
2023-04-24T08:21:17.421Z,70.9
2023-04-24T08:22:16.808Z,70.4
2023-04-24T08:23:17.372Z,70.3
2023-04-24T08:24:16.928Z,70.9
2023-04-24T08:25:17.497Z,70.9
2023-04-24T08:26:17.068Z,71.4
2023-04-24T08:27:16.632Z,71.3
2023-04-24T08:28:17.611Z,71.7
2023-04-24T08:29:17.175Z,72.1
2023-04-24T08:30:16.738Z,72.2
2023-04-24T08:31:17.319Z,72.1
2023-04-24T08:32:17.485Z,71.8
2023-04-24T08:33:17.016Z,72.0
2023-04-24T08:34:16.576Z,72.8
2023-04-24T08:35:17.169Z,73.0
2023-04-24T08:36:16.739Z,73.5
2023-04-24T08:37:17.307Z,73.6
2023-04-24T08:38:16.852Z,73.6
2023-04-24T08:39:17.406Z,73.7
2023-04-24T08:40:16.954Z,73.4
2023-04-24T08:41:16.658Z,73.2
2023-04-24T08:42:17.059Z,73.1
2023-04-24T08:43:16.622Z,73.3
2023-04-24T08:44:17.309Z,72.9
2023-04-24T08:45:16.916Z,73.2
2023-04-24T08:46:17.598Z,73.5
2023-04-24T08:47:17.232Z,73.4
2023-04-24T08:48:31.500Z,72.9
2023-04-24T08:49:16.614Z,73.2
2023-04-24T08:50:17.233Z,73.2
2023-04-24T08:51:16.801Z,72.6
2023-04-24T08:52:17.304Z,72.7
2023-04-24T08:53:16.866Z,72.3
2023-04-24T08:54:17.441Z,72.4
2023-04-24T08:55:16.990Z,72.5
2023-04-24T08:56:16.544Z,74.0
2023-04-24T08:57:17.073Z,73.2
2023-04-24T08:58:16.578Z,72.5
2023-04-24T08:59:17.120Z,72.8
2023-04-24T09:00:16.659Z,72.7
2023-04-24T09:01:17.255Z,72.8
2023-04-24T09:02:17.380Z,72.8
2023-04-24T09:03:17.811Z,73.3
2023-04-24T09:04:17.473Z,73.1
2023-04-24T09:05:17.273Z,73.1
2023-04-24T09:06:16.864Z,72.6
2023-04-24T09:07:17.464Z,72.9
2023-04-24T09:08:17.038Z,72.5
2023-04-24T09:09:16.567Z,72.6
2023-04-24T09:10:17.132Z,73.4
2023-04-24T09:11:16.687Z,72.8
2023-04-24T09:12:17.195Z,73.3
2023-04-24T09:13:16.722Z,73.0
2023-04-24T09:14:17.294Z,73.8
2023-04-24T09:15:16.861Z,73.7
2023-04-24T09:16:17.496Z,72.9
2023-04-24T09:17:17.070Z,73.4
2023-04-24T09:18:16.623Z,73.0
2023-04-24T09:19:17.229Z,73.0
2023-04-24T09:20:16.771Z,71.5
2023-04-24T09:21:17.326Z,70.3
2023-04-24T09:22:17.228Z,69.9
2023-04-24T09:23:16.756Z,70.6
2023-04-24T09:24:17.332Z,71.1
2023-04-24T09:25:16.888Z,70.8
2023-04-24T09:26:17.470Z,70.7
2023-04-24T09:27:17.036Z,70.1
2023-04-24T09:28:16.585Z,70.3
2023-04-24T09:29:17.199Z,71.3
2023-04-24T09:30:16.765Z,71.0
2023-04-24T09:31:17.462Z,71.7
2023-04-24T09:32:17.321Z,72.2
2023-04-24T09:33:16.993Z,72.7
2023-04-24T09:34:16.573Z,72.6
2023-04-24T09:35:17.150Z,72.9
2023-04-24T09:36:16.725Z,73.9
2023-04-24T09:37:17.255Z,73.2
2023-04-24T09:38:16.793Z,73.5
2023-04-24T09:39:17.331Z,71.7
2023-04-24T09:40:17.057Z,71.1
2023-04-24T09:41:16.647Z,70.9
2023-04-24T09:42:17.056Z,71.1
2023-04-24T09:43:16.632Z,70.6
2023-04-24T09:44:17.197Z,70.8
2023-04-24T09:45:16.829Z,71.7
2023-04-24T09:46:17.451Z,70.6
2023-04-24T09:47:17.065Z,71.0
2023-04-24T09:48:16.615Z,70.8
2023-04-24T09:49:17.185Z,71.3
2023-04-24T09:50:17.813Z,71.0
2023-04-24T09:51:17.403Z,70.5
2023-04-24T09:52:17.285Z,71.4
2023-04-24T09:53:16.867Z,69.5
2023-04-24T09:54:17.421Z,70.1
2023-04-24T09:55:16.959Z,69.3
2023-04-24T09:56:17.519Z,69.6
2023-04-24T09:57:17.083Z,69.8
2023-04-24T09:58:16.641Z,70.4
2023-04-24T09:59:17.235Z,70.7
2023-04-24T10:00:16.940Z,70.7
2023-04-24T10:01:16.557Z,70.1
2023-04-24T10:02:17.241Z,71.0
2023-04-24T10:03:17.008Z,69.3
2023-04-24T10:04:16.645Z,69.8
2023-04-24T10:05:17.192Z,69.9
2023-04-24T10:06:16.779Z,68.6
2023-04-24T10:07:17.330Z,67.8
2023-04-24T10:08:16.924Z,67.1
2023-04-24T10:09:17.526Z,67.0
2023-04-24T10:10:17.213Z,66.7
2023-04-24T10:11:16.842Z,65.8
2023-04-24T10:12:17.334Z,66.9
2023-04-24T10:13:16.999Z,67.9
2023-04-24T10:14:16.553Z,65.9
2023-04-24T10:15:17.154Z,66.4
2023-04-24T10:16:16.805Z,66.7
2023-04-24T10:17:17.457Z,66.7
2023-04-24T10:18:17.106Z,65.9
2023-04-24T10:19:16.683Z,66.1
2023-04-24T10:20:17.251Z,65.0
2023-04-24T10:21:16.805Z,65.3
2023-04-24T10:22:16.557Z,66.3
2023-04-24T10:23:17.098Z,65.7
2023-04-24T10:24:16.657Z,67.5
2023-04-24T10:25:17.231Z,68.6
2023-04-24T10:26:16.786Z,69.6
2023-04-24T10:27:17.330Z,71.2
2023-04-24T10:28:16.939Z,71.7
2023-04-24T10:29:17.496Z,72.7
2023-04-24T10:30:17.167Z,73.6
2023-04-24T10:31:16.771Z,73.5
2023-04-24T10:32:16.811Z,73.5
2023-04-24T10:33:17.390Z,73.5
2023-04-24T10:34:16.957Z,73.6
2023-04-24T10:35:17.553Z,73.5
2023-04-24T10:36:17.150Z,73.8
2023-04-24T10:37:16.737Z,71.8
2023-04-24T10:38:17.547Z,71.5
2023-04-24T10:39:17.117Z,70.9
2023-04-24T10:40:16.853Z,71.4
2023-04-24T10:41:17.554Z,71.1
2023-04-24T10:42:17.522Z,71.1
2023-04-24T10:43:17.121Z,71.2
2023-04-24T10:44:16.670Z,70.7
2023-04-24T10:45:17.242Z,71.4
2023-04-24T10:46:16.847Z,71.6
2023-04-24T10:47:17.420Z,71.6
2023-04-24T10:48:17.082Z,70.9
2023-04-24T10:49:16.652Z,70.9
2023-04-24T10:50:17.216Z,70.4
2023-04-24T10:51:16.778Z,69.7
2023-04-24T10:52:16.595Z,70.1
2023-04-24T10:53:17.161Z,69.9
2023-04-24T10:54:16.747Z,69.7
2023-04-24T10:55:17.280Z,70.0
2023-04-24T10:56:16.834Z,69.7
2023-04-24T10:57:17.433Z,69.8
2023-04-24T10:58:17.026Z,69.0
2023-04-24T10:59:16.601Z,69.4
2023-04-24T11:00:17.211Z,69.6
2023-04-24T11:01:16.818Z,69.6
2023-04-24T11:02:17.602Z,70.0
2023-04-24T11:03:17.484Z,69.9
2023-04-24T11:04:17.430Z,70.4
2023-04-24T11:05:17.056Z,70.7
2023-04-24T11:06:16.628Z,70.9
2023-04-24T11:07:17.196Z,71.1
2023-04-24T11:08:16.766Z,71.2
2023-04-24T11:09:17.358Z,70.8
2023-04-24T11:10:16.980Z,70.6
2023-04-24T11:11:16.568Z,71.0
2023-04-24T11:12:17.218Z,70.9
2023-04-24T11:13:16.817Z,71.2
2023-04-24T11:14:17.546Z,69.3
2023-04-24T11:15:17.123Z,69.4
2023-04-24T11:16:16.819Z,68.3
2023-04-24T11:17:17.442Z,67.5
2023-04-24T11:18:17.023Z,67.2
2023-04-24T11:19:16.745Z,66.8
2023-04-24T11:20:28.323Z,67.3
2023-04-24T11:21:17.159Z,67.1
2023-04-24T11:22:16.956Z,68.0
2023-04-24T11:23:17.515Z,65.7
2023-04-24T11:24:17.101Z,66.8
2023-04-24T11:25:16.678Z,67.3
2023-04-24T11:26:17.248Z,66.0
2023-04-24T11:27:16.843Z,65.8
2023-04-24T11:28:17.427Z,66.0
2023-04-24T11:29:21.585Z,66.4
2023-04-24T11:30:17.103Z,66.5
2023-04-24T11:31:16.631Z,67.0
2023-04-24T11:32:17.366Z,67.4
2023-04-24T11:33:17.204Z,68.0
2023-04-24T11:34:16.769Z,68.4
2023-04-24T11:35:17.341Z,67.6
2023-04-24T11:36:16.922Z,68.6
2023-04-24T11:37:17.483Z,68.4
2023-04-24T11:38:25.228Z,68.5
2023-04-24T11:39:16.892Z,68.7
2023-04-24T11:40:17.505Z,68.5
2023-04-24T11:41:17.141Z,68.6
2023-04-24T11:42:16.913Z,67.7
2023-04-24T11:43:17.488Z,67.7
2023-04-24T11:44:17.049Z,68.0
2023-04-24T11:45:16.601Z,67.2
2023-04-24T11:46:17.418Z,67.3
2023-04-24T11:47:17.036Z,67.4
2023-04-24T11:48:16.596Z,67.7
2023-04-24T11:49:17.207Z,67.6
2023-04-24T11:50:16.795Z,67.5
2023-04-24T11:51:17.464Z,67.6
2023-04-24T11:52:17.139Z,68.7
2023-04-24T11:53:16.925Z,67.2
2023-04-24T11:54:17.498Z,67.0
2023-04-24T11:55:17.122Z,67.1
2023-04-24T11:56:16.693Z,66.5
2023-04-24T11:57:17.230Z,66.5
2023-04-24T11:58:16.802Z,67.3
2023-04-24T11:59:17.364Z,67.3
2023-04-24T12:00:16.973Z,67.5
2023-04-24T12:01:16.547Z,67.6
2023-04-24T12:02:16.934Z,67.6
2023-04-24T12:03:16.924Z,67.9
2023-04-24T12:04:16.898Z,68.5
2023-04-24T12:05:17.262Z,68.5
2023-04-24T12:06:17.121Z,68.7
2023-04-24T12:07:16.711Z,68.7
2023-04-24T12:08:17.259Z,69.6
2023-04-24T12:09:18.883Z,69.5
2023-04-24T12:10:17.456Z,69.2
2023-04-24T12:11:17.046Z,69.7
2023-04-24T12:12:16.864Z,70.1
2023-04-24T12:13:17.403Z,69.7
2023-04-24T12:14:16.956Z,69.9
2023-04-24T12:15:17.539Z,69.5
2023-04-24T12:16:17.326Z,69.8
2023-04-24T12:17:16.993Z,69.5
2023-04-24T12:18:16.650Z,69.7
2023-04-24T12:19:17.221Z,69.4
2023-04-24T12:20:16.755Z,69.4
2023-04-24T12:21:17.398Z,69.5
2023-04-24T12:22:16.874Z,69.8
2023-04-24T12:23:17.436Z,69.9
2023-04-24T12:24:16.987Z,69.6
2023-04-24T12:25:16.552Z,69.4
2023-04-24T12:26:17.091Z,69.3
2023-04-24T12:27:16.644Z,69.6
2023-04-24T12:28:17.223Z,69.9
2023-04-24T12:29:16.783Z,69.8
2023-04-24T12:30:17.362Z,69.9
2023-04-24T12:31:17.121Z,69.6
2023-04-24T12:32:17.536Z,68.6
2023-04-24T12:33:17.123Z,68.7
2023-04-24T12:34:16.739Z,68.9
2023-04-24T12:35:17.308Z,69.0
2023-04-24T12:36:16.882Z,68.8
2023-04-24T12:37:17.523Z,69.0
2023-04-24T12:38:17.114Z,69.7
2023-04-24T12:39:16.714Z,69.7
2023-04-24T12:40:17.286Z,69.9
2023-04-24T12:41:16.816Z,69.7
2023-04-24T12:42:16.838Z,69.3
2023-04-24T12:43:17.527Z,69.8
2023-04-24T12:44:17.120Z,69.7
2023-04-24T12:45:16.692Z,69.0
2023-04-24T12:46:20.525Z,68.9
2023-04-24T12:47:16.916Z,69.4
2023-04-24T12:48:17.706Z,69.1
2023-04-24T12:49:17.327Z,69.5
2023-04-24T12:50:16.943Z,69.9
2023-04-24T12:51:17.487Z,70.0
2023-04-24T12:52:16.619Z,70.4
2023-04-24T12:53:17.182Z,70.1
2023-04-24T12:54:16.816Z,70.0
2023-04-24T12:55:17.394Z,69.6
2023-04-24T12:56:16.968Z,69.3
2023-04-24T12:57:17.549Z,69.4
2023-04-24T12:58:17.110Z,69.1
2023-04-24T12:59:16.678Z,68.8
2023-04-24T13:00:20.400Z,69.7
2023-04-24T13:01:17.198Z,69.2
2023-04-24T13:02:16.745Z,69.7
2023-04-24T13:03:17.687Z,69.6
2023-04-24T13:04:17.549Z,70.0
2023-04-24T13:05:17.218Z,70.1
2023-04-24T13:06:16.768Z,69.8
2023-04-24T13:07:17.347Z,70.0
2023-04-24T13:08:16.900Z,69.7
2023-04-24T13:09:17.430Z,69.6
2023-04-24T13:10:16.987Z,69.2
2023-04-24T13:11:16.579Z,68.5
2023-04-24T13:12:16.631Z,69.4
2023-04-24T13:13:17.258Z,68.7
2023-04-24T13:14:16.865Z,68.7
2023-04-24T13:15:17.468Z,67.6
2023-04-24T13:16:17.144Z,67.9
2023-04-24T13:17:16.889Z,67.9
2023-04-24T13:18:16.812Z,67.8